Time;durP1;ratioP1;P1;durP2;ratioP2;P2;SDS_P1;SDS_P2;PMS_P1;PMS_P2;Temp;Humidity;BMP_temperature;BMP_pressure;BME280_temperature;BME280_humidity;BME280_pressure;Samples;Min_cycle;Max_cycle;Signal;HPM_P1;HPM_P2
2022/09/14 00:02:16;;;;;;;5.65;1.83;;;17.40;99.90;;;;;;4969300;28;20018;-85
2022/09/14 00:04:42;;;;;;;3.50;1.70;;;17.30;99.90;;;;;;4992597;28;20610;-85
2022/09/14 00:07:08;;;;;;;7.50;2.13;;;17.30;99.90;;;;;;4995246;28;20539;-86
2022/09/14 00:09:34;;;;;;;2.92;1.30;;;17.30;99.90;;;;;;4995998;28;20030;-85
2022/09/14 00:11:59;;;;;;;6.15;1.70;;;17.30;99.90;;;;;;4995866;28;20033;-85
2022/09/14 00:14:25;;;;;;;7.18;1.38;;;17.20;99.90;;;;;;4995647;28;20034;-85
2022/09/14 00:16:51;;;;;;;3.65;1.80;;;17.20;99.90;;;;;;4995366;28;20038;-85
2022/09/14 00:19:23;;;;;;;4.97;1.63;;;17.10;99.90;;;;;;4996640;28;20073;-84
2022/09/14 00:21:55;;;;;;;6.50;2.03;;;16.90;99.90;;;;;;4995366;28;20030;-84
2022/09/14 00:24:23;;;;;;;3.10;1.92;;;16.70;99.90;;;;;;4994752;28;20030;-84
2022/09/14 00:26:49;;;;;;;6.45;2.00;;;16.60;99.90;;;;;;4994665;28;20054;-84
2022/09/14 00:29:22;;;;;;;11.52;2.38;;;16.40;99.90;;;;;;4994795;28;20030;-84
2022/09/14 00:31:48;;;;;;;10.45;2.40;;;16.20;99.90;;;;;;4995120;28;20030;-84
2022/09/14 00:34:16;;;;;;;14.68;2.55;;;16.20;99.90;;;;;;4994877;28;20030;-84
2022/09/14 00:36:45;;;;;;;9.00;2.83;;;16.00;99.90;;;;;;4995019;28;20030;-84
2022/09/14 00:39:11;;;;;;;6.95;2.50;;;15.90;99.90;;;;;;4994792;28;20026;-83
2022/09/14 00:41:40;;;;;;;13.05;3.25;;;15.90;99.90;;;;;;4978755;28;20041;-83
2022/09/14 00:44:25;;;;;;;11.68;3.08;;;15.90;99.90;;;;;;4989250;28;20105;-83
2022/09/14 00:46:54;;;;;;;18.65;3.20;;;15.80;99.90;;;;;;4996047;28;20081;-83
2022/09/14 00:49:28;;;;;;;12.18;3.78;;;15.80;99.90;;;;;;4996159;28;20027;-83
2022/09/14 00:52:15;;;;;;;13.82;4.65;;;15.80;99.90;;;;;;4988660;28;20035;-83
2022/09/14 00:54:45;;;;;;;35.22;4.45;;;15.70;99.90;;;;;;4978055;28;20034;-84
2022/09/14 00:57:11;;;;;;;8.43;3.08;;;15.70;99.90;;;;;;5010782;28;20031;-84
2022/09/14 00:59:40;;;;;;;9.80;3.47;;;15.70;99.90;;;;;;4993957;28;20035;-84
2022/09/14 01:02:09;;;;;;;8.45;3.35;;;15.70;99.90;;;;;;4987024;28;20030;-83
2022/09/14 01:04:36;;;;;;;10.18;3.42;;;15.70;99.90;;;;;;4994357;28;20030;-83
2022/09/14 01:07:01;;;;;;;9.18;3.30;;;15.70;99.90;;;;;;4994432;28;20064;-84
2022/09/14 01:09:48;;;;;;;10.70;3.42;;;15.60;99.90;;;;;;4978379;28;20065;-83
2022/09/14 01:12:40;;;;;;;6.90;3.40;;;15.60;99.90;;;;;;4988395;28;20030;-83
2022/09/14 01:15:38;;;;;;;12.77;3.78;;;15.60;99.90;;;;;;4998293;28;20038;-83
2022/09/14 01:18:35;;;;;;;9.52;3.50;;;15.50;99.90;;;;;;4988186;28;20034;-83
2022/09/14 01:21:11;;;;;;;9.55;3.75;;;15.50;99.90;;;;;;4978159;28;20097;-83
2022/09/14 01:24:00;;;;;;;8.88;3.30;;;15.60;99.90;;;;;;5010333;28;20053;-83
2022/09/14 01:26:29;;;;;;;9.35;3.03;;;15.60;99.90;;;;;;4973400;28;20503;-83
2022/09/14 01:29:15;;;;;;;7.75;3.13;;;15.50;99.90;;;;;;4994151;28;20026;-83
2022/09/14 01:31:59;;;;;;;7.28;3.42;;;15.50;99.90;;;;;;4994773;28;20426;-83
2022/09/14 01:34:59;;;;;;;8.27;3.47;;;15.50;99.90;;;;;;4993663;28;20038;-83
2022/09/14 01:37:35;;;;;;;8.95;3.30;;;15.50;99.90;;;;;;4993386;28;20034;-83
2022/09/14 01:40:07;;;;;;;15.98;3.40;;;15.50;99.90;;;;;;4993549;28;20061;-83
2022/09/14 01:42:34;;;;;;;7.97;3.58;;;15.50;99.90;;;;;;4993541;28;20027;-83
2022/09/14 01:45:06;;;;;;;7.53;3.28;;;15.50;99.90;;;;;;4994568;28;20030;-82
2022/09/14 01:47:50;;;;;;;9.20;3.72;;;15.50;99.90;;;;;;5000871;28;20026;-82
2022/09/14 01:50:27;;;;;;;8.77;3.92;;;15.40;99.90;;;;;;4987583;28;20438;-83
2022/09/14 01:53:20;;;;;;;10.73;4.40;;;15.40;99.90;;;;;;4993855;28;20065;-83
2022/09/14 01:55:49;;;;;;;18.15;4.00;;;15.40;99.90;;;;;;4993786;28;20414;-82
2022/09/14 01:58:42;;;;;;;12.00;4.13;;;15.40;99.90;;;;;;4993680;28;20439;-82
2022/09/14 02:01:15;;;;;;;8.13;3.90;;;15.30;99.90;;;;;;4989832;28;20029;-82
2022/09/14 02:03:48;;;;;;;9.20;3.88;;;15.20;99.90;;;;;;4993478;28;20036;-82
2022/09/14 02:06:17;;;;;;;7.20;3.58;;;15.20;99.90;;;;;;4992942;28;20034;-82
2022/09/14 02:08:43;;;;;;;11.75;3.78;;;15.20;99.90;;;;;;4992987;28;20041;-82
2022/09/14 02:11:09;;;;;;;11.60;4.43;;;15.20;99.90;;;;;;4994671;28;20386;-82
2022/09/14 02:13:34;;;;;;;15.52;4.10;;;15.20;99.90;;;;;;4992618;28;20485;-82
2022/09/14 02:16:00;;;;;;;9.70;4.15;;;15.20;99.90;;;;;;4993493;28;20030;-82
2022/09/14 02:18:26;;;;;;;16.23;4.22;;;15.30;99.90;;;;;;5008470;28;20062;-82
2022/09/14 02:21:00;;;;;;;10.38;4.50;;;15.30;99.90;;;;;;4993021;28;20046;-82
2022/09/14 02:23:26;;;;;;;10.70;4.18;;;15.30;99.90;;;;;;4992513;28;20027;-82
2022/09/14 02:25:52;;;;;;;10.23;4.60;;;15.30;99.90;;;;;;4999645;28;20068;-82
2022/09/14 02:28:20;;;;;;;9.68;3.88;;;15.30;99.90;;;;;;4992724;28;20026;-82
2022/09/14 02:30:51;;;;;;;14.95;4.40;;;15.30;99.90;;;;;;4993018;28;20490;-82
2022/09/14 02:33:58;;;;;;;15.82;4.60;;;15.30;99.90;;;;;;4993634;28;20050;-82
2022/09/14 02:36:31;;;;;;;13.60;4.60;;;15.30;99.90;;;;;;4988800;28;20613;-82
2022/09/14 02:39:12;;;;;;;14.15;5.47;;;15.30;99.90;;;;;;4992296;28;20667;-81
2022/09/14 02:41:54;;;;;;;17.55;5.22;;;15.30;99.90;;;;;;4976422;28;20062;-81
2022/09/14 02:44:36;;;;;;;12.75;5.60;;;15.30;99.90;;;;;;5005268;28;20039;-82
2022/09/14 02:47:23;;;;;;;13.95;5.53;;;15.20;99.90;;;;;;4992635;28;20117;-82
2022/09/14 02:50:11;;;;;;;11.00;5.03;;;15.20;99.90;;;;;;4976630;28;20477;-82
2022/09/14 02:52:50;;;;;;;21.65;7.85;;;15.20;99.90;;;;;;4992435;28;20045;-82
2022/09/14 02:55:28;;;;;;;17.77;5.43;;;15.10;99.90;;;;;;4969740;28;20466;-82
2022/09/14 02:58:10;;;;;;;13.80;5.78;;;15.10;99.90;;;;;;5008791;28;20034;-82
2022/09/14 03:00:39;;;;;;;10.63;5.00;;;15.10;99.90;;;;;;4992859;28;20482;-82
2022/09/14 03:03:07;;;;;;;14.95;5.20;;;15.10;99.90;;;;;;4990677;28;20038;-83
2022/09/14 03:05:33;;;;;;;11.75;5.07;;;15.10;99.90;;;;;;4992579;28;20091;-82
2022/09/14 03:07:59;;;;;;;11.90;5.40;;;15.20;99.90;;;;;;4992172;28;20034;-82
2022/09/14 03:10:26;;;;;;;10.52;5.13;;;15.20;99.90;;;;;;4992332;28;20030;-83
2022/09/14 03:12:52;;;;;;;18.42;5.53;;;15.10;99.90;;;;;;4993742;28;20038;-82
2022/09/14 03:15:18;;;;;;;11.13;5.57;;;15.20;99.90;;;;;;4991543;28;20034;-83
2022/09/14 03:17:48;;;;;;;13.18;5.75;;;15.10;99.90;;;;;;4992591;28;20375;-82
2022/09/14 03:20:18;;;;;;;13.65;6.32;;;15.10;99.90;;;;;;4993801;28;20030;-83
2022/09/14 03:22:44;;;;;;;9.85;5.22;;;15.10;99.90;;;;;;4992436;28;20034;-83
2022/09/14 03:25:10;;;;;;;7.60;5.40;;;15.10;99.90;;;;;;4994973;28;20024;-83
2022/09/14 03:27:36;;;;;;;17.77;6.47;;;15.10;99.90;;;;;;4996415;28;20526;-82
2022/09/14 03:30:04;;;;;;;13.43;5.40;;;15.10;99.90;;;;;;4992411;28;20064;-83
2022/09/14 03:32:30;;;;;;;20.75;6.45;;;15.00;99.90;;;;;;4992244;28;20092;-83
2022/09/14 03:34:56;;;;;;;14.40;6.82;;;15.00;99.90;;;;;;4990440;28;20716;-83
2022/09/14 03:37:22;;;;;;;17.17;6.10;;;15.00;99.90;;;;;;4987570;28;20137;-83
2022/09/14 03:39:48;;;;;;;10.82;6.28;;;15.00;99.90;;;;;;5001765;28;20109;-83
2022/09/14 03:42:13;;;;;;;17.35;8.05;;;15.00;99.90;;;;;;4996107;28;20057;-83
2022/09/14 03:44:39;;;;;;;16.33;8.25;;;14.90;99.90;;;;;;4995867;28;20033;-83
2022/09/14 03:47:05;;;;;;;15.13;8.88;;;14.90;99.90;;;;;;4997309;28;20045;-82
2022/09/14 03:49:30;;;;;;;17.63;9.60;;;14.80;99.90;;;;;;4996861;28;20162;-82
2022/09/14 03:51:56;;;;;;;20.90;11.35;;;14.80;99.90;;;;;;4996044;28;20042;-82
2022/09/14 03:54:22;;;;;;;17.88;11.73;;;14.80;99.90;;;;;;4982476;28;20743;-83
2022/09/14 03:56:49;;;;;;;25.95;14.15;;;14.70;99.90;;;;;;5006745;28;20038;-83
2022/09/14 03:59:15;;;;;;;25.67;13.20;;;14.80;99.90;;;;;;4994347;28;20022;-83
2022/09/14 04:01:41;;;;;;;22.80;14.80;;;14.70;99.90;;;;;;4992182;28;20027;-83
2022/09/14 04:04:07;;;;;;;31.17;14.77;;;14.70;99.90;;;;;;4988018;28;20031;-84
2022/09/14 04:06:32;;;;;;;29.13;16.48;;;14.70;99.90;;;;;;4997548;28;20048;-83
2022/09/14 04:08:58;;;;;;;30.83;18.00;;;14.70;99.90;;;;;;5006139;28;20537;-82
2022/09/14 04:11:25;;;;;;;36.25;19.85;;;14.70;99.90;;;;;;4993824;28;20113;-83
2022/09/14 04:13:51;;;;;;;34.50;19.52;;;14.70;99.90;;;;;;4989200;28;20038;-83
2022/09/14 04:16:19;;;;;;;41.78;20.85;;;14.70;99.90;;;;;;4997643;28;20548;-83
2022/09/14 04:18:54;;;;;;;40.78;21.95;;;14.70;99.90;;;;;;4982292;28;20027;-83
2022/09/14 04:21:22;;;;;;;33.63;20.92;;;14.70;99.90;;;;;;4982671;28;20038;-83
2022/09/14 04:23:51;;;;;;;36.22;23.05;;;14.70;99.90;;;;;;4994020;28;20098;-83
2022/09/14 04:26:18;;;;;;;41.17;23.08;;;14.70;99.90;;;;;;4973263;28;20033;-84
2022/09/14 04:28:44;;;;;;;43.83;25.50;;;14.70;99.90;;;;;;5002815;28;20031;-83
2022/09/14 04:31:11;;;;;;;40.60;24.75;;;14.70;99.90;;;;;;4972338;28;20057;-83
2022/09/14 04:33:39;;;;;;;54.33;28.95;;;14.70;99.90;;;;;;4992195;28;20042;-83
2022/09/14 04:36:08;;;;;;;50.83;29.50;;;14.70;99.90;;;;;;5000067;28;20025;-83
2022/09/14 04:38:36;;;;;;;59.95;30.90;;;14.80;99.90;;;;;;5001443;28;20034;-83
2022/09/14 04:41:07;;;;;;;57.90;30.20;;;14.80;99.90;;;;;;4988040;28;20508;-83
2022/09/14 04:43:33;;;;;;;54.65;30.00;;;14.80;99.90;;;;;;4993646;28;20466;-83
2022/09/14 04:46:04;;;;;;;52.15;30.17;;;14.80;99.90;;;;;;4999238;28;20077;-83
2022/09/14 04:48:32;;;;;;;57.50;33.73;;;14.80;99.90;;;;;;4982333;28;20050;-83
2022/09/14 04:51:07;;;;;;;59.00;34.33;;;14.80;99.90;;;;;;4995245;28;20280;-83
2022/09/14 04:53:34;;;;;;;59.42;33.10;;;14.80;99.90;;;;;;5004169;28;20034;-82
2022/09/14 04:56:05;;;;;;;57.80;33.70;;;14.80;99.90;;;;;;5000129;28;20036;-82
2022/09/14 04:58:32;;;;;;;56.17;31.60;;;14.80;99.90;;;;;;4998303;28;20045;-82
2022/09/14 05:01:07;;;;;;;40.30;24.67;;;14.80;99.90;;;;;;4983986;28;20038;-84
2022/09/14 05:03:34;;;;;;;38.78;24.50;;;14.90;99.90;;;;;;4992855;28;20114;-85
2022/09/14 05:06:10;;;;;;;36.88;24.63;;;14.90;99.90;;;;;;4995389;28;20172;-84
2022/09/14 05:08:37;;;;;;;33.42;21.38;;;14.80;99.90;;;;;;4977002;28;20039;-85
2022/09/14 05:11:05;;;;;;;37.20;22.63;;;14.90;99.90;;;;;;4990133;28;20023;-85
2022/09/14 05:13:31;;;;;;;33.00;21.55;;;14.80;99.90;;;;;;4986497;28;20030;-86
2022/09/14 05:16:08;;;;;;;39.92;24.27;;;14.80;99.90;;;;;;4990163;28;20043;-86
2022/09/14 05:18:34;;;;;;;52.00;27.10;;;14.90;99.90;;;;;;4984890;28;20517;-86
2022/09/14 05:21:04;;;;;;;49.03;27.02;;;14.80;99.90;;;;;;4989366;28;20026;-85
2022/09/14 05:23:30;;;;;;;58.05;29.48;;;14.90;99.90;;;;;;4986603;28;20021;-86
2022/09/14 05:25:56;;;;;;;61.00;31.15;;;14.80;99.90;;;;;;4980702;28;20406;-85
2022/09/14 05:28:23;;;;;;;61.50;34.00;;;14.80;99.90;;;;;;4990806;28;20034;-86
2022/09/14 05:30:49;;;;;;;78.05;35.03;;;14.90;99.90;;;;;;4986497;28;20035;-86
2022/09/14 05:33:14;;;;;;;75.32;36.45;;;14.90;99.90;;;;;;4974718;28;20500;-86
2022/09/14 05:35:40;;;;;;;84.38;38.70;;;15.00;99.90;;;;;;4989128;28;20034;-85
2022/09/14 05:38:06;;;;;;;83.70;38.70;;;15.00;99.90;;;;;;4989380;28;20033;-86
2022/09/14 05:40:32;;;;;;;89.05;39.97;;;15.00;99.90;;;;;;4990522;28;20068;-86
2022/09/14 05:42:58;;;;;;;107.75;40.92;;;15.00;99.90;;;;;;4986363;28;20062;-86
2022/09/14 05:45:23;;;;;;;88.57;37.70;;;15.00;99.90;;;;;;4978186;28;20045;-86
2022/09/14 05:47:49;;;;;;;95.78;36.97;;;15.00;99.90;;;;;;4981191;28;20061;-86
2022/09/14 05:50:15;;;;;;;81.70;36.17;;;15.10;99.90;;;;;;4970212;28;20033;-86
2022/09/14 05:52:41;;;;;;;69.82;33.33;;;15.10;99.90;;;;;;4992361;28;20065;-86
2022/09/14 05:55:07;;;;;;;67.65;32.13;;;15.10;99.90;;;;;;4993860;28;20061;-85
2022/09/14 05:57:33;;;;;;;57.80;26.75;;;15.10;99.90;;;;;;4992825;28;20034;-85
2022/09/14 05:59:59;;;;;;;61.42;26.63;;;15.20;99.90;;;;;;4993001;28;20051;-85
2022/09/14 06:02:25;;;;;;;47.10;24.23;;;15.10;99.90;;;;;;4995259;28;20477;-85
2022/09/14 06:04:51;;;;;;;55.92;24.92;;;15.10;99.90;;;;;;4993070;28;20072;-86
2022/09/14 06:07:16;;;;;;;54.05;24.23;;;15.20;99.90;;;;;;4978951;28;20646;-85
2022/09/14 06:09:42;;;;;;;47.20;20.45;;;15.20;99.90;;;;;;4992441;28;20030;-85
2022/09/14 06:12:08;;;;;;;43.08;20.33;;;15.20;99.90;;;;;;4994584;28;20656;-85
2022/09/14 06:14:34;;;;;;;47.00;20.42;;;15.20;99.90;;;;;;4991703;28;20041;-86
2022/09/14 06:17:00;;;;;;;40.30;17.48;;;15.30;99.90;;;;;;4976670;28;20040;-86
2022/09/14 06:19:26;;;;;;;30.67;15.18;;;15.30;99.90;;;;;;4976396;28;20112;-86
2022/09/14 06:21:52;;;;;;;48.30;18.33;;;15.30;99.90;;;;;;4994007;28;20389;-86
2022/09/14 06:24:18;;;;;;;37.63;17.33;;;15.30;99.90;;;;;;5009240;28;20109;-86
2022/09/14 06:26:43;;;;;;;41.67;17.77;;;15.30;99.90;;;;;;4975545;28;20030;-86
2022/09/14 06:29:09;;;;;;;41.10;18.50;;;15.30;99.90;;;;;;4992778;28;20465;-86
2022/09/14 06:31:35;;;;;;;40.35;19.48;;;15.30;99.90;;;;;;4977249;28;20390;-86
2022/09/14 06:34:01;;;;;;;42.20;18.88;;;15.40;99.90;;;;;;4989958;28;20476;-86
2022/09/14 06:36:27;;;;;;;43.13;18.45;;;15.40;99.90;;;;;;4991988;28;20065;-87
2022/09/14 06:38:54;;;;;;;42.70;20.67;;;15.40;99.90;;;;;;4994034;28;20080;-86
2022/09/14 06:41:25;;;;;;;42.17;21.63;;;15.40;99.90;;;;;;4975165;28;20470;-87
2022/09/14 06:43:51;;;;;;;43.65;22.05;;;15.50;99.90;;;;;;4991232;28;20382;-87
2022/09/14 06:46:22;;;;;;;50.20;24.55;;;15.50;99.90;;;;;;4992028;28;20062;-88
2022/09/14 06:48:51;;;;;;;65.53;27.00;;;15.50;99.90;;;;;;4992433;28;20034;-87
2022/09/14 06:51:27;;;;;;;71.28;28.95;;;15.50;99.90;;;;;;4990846;28;20042;-87
2022/09/14 06:53:55;;;;;;;53.17;26.80;;;15.50;99.90;;;;;;5007303;28;20038;-87
2022/09/14 06:56:21;;;;;;;75.82;30.55;;;15.50;99.90;;;;;;4989364;28;20113;-87
2022/09/14 06:58:48;;;;;;;79.45;32.95;;;15.50;99.90;;;;;;4991940;28;20223;-87
2022/09/14 07:01:16;;;;;;;69.60;33.25;;;15.50;99.90;;;;;;4974997;28;20026;-87
2022/09/14 07:03:42;;;;;;;86.72;34.45;;;15.50;99.90;;;;;;4971317;28;20087;-87
2022/09/14 07:06:15;;;;;;;147.63;39.05;;;15.50;99.90;;;;;;4975475;28;20022;-87
2022/09/14 07:08:41;;;;;;;117.68;40.05;;;15.40;99.90;;;;;;4991512;28;20060;-87
2022/09/14 07:11:09;;;;;;;126.10;38.25;;;15.40;99.90;;;;;;4991668;28;20034;-88
2022/09/14 07:13:35;;;;;;;308.33;44.22;;;15.40;99.90;;;;;;4992366;28;20136;-87
2022/09/14 07:16:02;;;;;;;418.90;43.38;;;15.40;99.90;;;;;;4989105;28;20069;-86
2022/09/14 07:18:31;;;;;;;411.23;49.67;;;15.40;99.90;;;;;;4993201;28;20038;-87
2022/09/14 07:21:01;;;;;;;501.65;53.50;;;15.40;99.90;;;;;;4975688;28;20529;-87
2022/09/14 07:23:27;;;;;;;337.05;47.63;;;15.40;99.90;;;;;;4976003;28;20113;-86
2022/09/14 07:26:06;;;;;;;233.70;44.25;;;15.40;99.90;;;;;;4997035;28;20073;-87
2022/09/14 07:28:32;;;;;;;323.92;46.20;;;15.50;99.90;;;;;;4993932;28;20038;-87
2022/09/14 07:30:59;;;;;;;347.65;49.08;;;15.50;99.90;;;;;;4973205;28;20034;-86
2022/09/14 07:33:25;;;;;;;276.02;48.95;;;15.50;99.90;;;;;;4996544;28;20040;-87
2022/09/14 07:35:51;;;;;;;454.63;53.58;;;15.60;99.90;;;;;;4975169;28;20030;-87
2022/09/14 07:38:18;;;;;;;169.73;45.60;;;15.70;99.90;;;;;;4996654;28;20124;-87
2022/09/14 07:40:44;;;;;;;72.82;34.00;;;15.90;99.90;;;;;;4978398;28;20034;-87
2022/09/14 07:43:10;;;;;;;143.27;43.25;;;16.10;99.90;;;;;;4994149;28;20015;-88
2022/09/14 07:45:37;;;;;;;108.28;39.55;;;16.10;99.90;;;;;;4991896;28;20034;-87
2022/09/14 07:48:04;;;;;;;116.40;38.80;;;16.10;99.90;;;;;;4967249;28;20829;-88
2022/09/14 07:50:30;;;;;;;261.05;46.55;;;16.10;99.90;;;;;;4971819;28;20092;-87
2022/09/14 07:52:56;;;;;;;425.20;47.53;;;16.20;99.90;;;;;;4991758;28;20066;-87
2022/09/14 07:55:23;;;;;;;154.68;39.17;;;16.20;99.90;;;;;;4969357;28;20038;-88
2022/09/14 07:57:48;;;;;;;118.60;36.05;;;16.20;99.90;;;;;;4989806;28;20034;-88
2022/09/14 08:00:15;;;;;;;64.78;33.55;;;16.30;99.90;;;;;;4993477;28;20117;-87
2022/09/14 08:02:40;;;;;;;58.53;30.65;;;16.50;99.90;;;;;;4987050;28;20038;-88
2022/09/14 08:05:06;;;;;;;63.20;31.30;;;16.50;99.90;;;;;;4992626;28;20109;-87
2022/09/14 08:07:32;;;;;;;52.97;28.08;;;16.60;99.90;;;;;;5008241;28;20026;-87
2022/09/14 08:09:58;;;;;;;44.72;26.67;;;16.80;99.90;;;;;;4984654;28;20034;-87
2022/09/14 08:13:02;;;;;;;43.83;26.02;;;17.00;99.90;;;;;;5008051;28;20030;-87
2022/09/14 08:15:28;;;;;;;46.40;26.20;;;17.20;99.90;;;;;;4988198;28;20089;-87
2022/09/14 08:17:54;;;;;;;39.95;24.95;;;17.20;99.90;;;;;;4993008;28;20077;-87
2022/09/14 08:20:20;;;;;;;36.13;23.25;;;17.40;99.90;;;;;;4991634;28;20026;-86
2022/09/14 08:22:45;;;;;;;30.33;21.90;;;17.40;99.90;;;;;;4992229;28;20034;-86
2022/09/14 08:25:11;;;;;;;30.98;22.55;;;17.50;99.90;;;;;;4991952;28;20039;-87
2022/09/14 08:27:37;;;;;;;29.98;22.42;;;17.40;99.90;;;;;;4995898;28;20042;-87
2022/09/14 08:30:04;;;;;;;27.70;20.40;;;17.40;99.90;;;;;;5009529;28;20079;-88
2022/09/14 08:32:30;;;;;;;26.75;21.75;;;17.40;99.90;;;;;;4996810;28;20046;-87
2022/09/14 08:34:56;;;;;;;29.35;23.85;;;17.50;99.90;;;;;;4995100;28;20547;-88
2022/09/14 08:37:21;;;;;;;34.78;25.48;;;17.50;99.90;;;;;;4995578;28;20425;-86
2022/09/14 08:39:47;;;;;;;32.63;25.13;;;17.40;99.90;;;;;;4995143;28;20042;-87
2022/09/14 08:42:31;;;;;;;42.25;28.67;;;17.40;99.90;;;;;;4987437;28;20276;-87
2022/09/14 08:45:04;;;;;;;48.47;28.88;;;17.20;99.90;;;;;;4992480;28;20033;-87
2022/09/14 08:47:38;;;;;;;89.30;32.03;;;17.10;99.90;;;;;;4993830;28;20034;-87
2022/09/14 08:50:16;;;;;;;52.47;29.33;;;17.20;99.90;;;;;;4997005;28;20035;-87
2022/09/14 08:52:46;;;;;;;72.35;30.83;;;17.20;99.90;;;;;;5011310;28;20425;-87
2022/09/14 08:55:34;;;;;;;59.10;30.88;;;17.20;99.90;;;;;;4991397;28;20038;-87
2022/09/14 08:58:06;;;;;;;60.45;31.20;;;17.30;99.90;;;;;;4995842;28;20038;-87
2022/09/14 09:00:51;;;;;;;224.32;35.28;;;17.40;99.90;;;;;;4994557;28;20034;-86
2022/09/14 09:03:38;;;;;;;181.88;35.75;;;17.60;99.90;;;;;;5003631;28;20037;-87
2022/09/14 09:06:16;;;;;;;409.48;42.50;;;17.60;99.90;;;;;;5005996;28;20039;-87
2022/09/14 09:09:07;;;;;;;234.73;35.97;;;17.50;99.90;;;;;;4995128;28;20490;-86
2022/09/14 09:11:40;;;;;;;658.80;50.25;;;17.60;99.90;;;;;;4998575;28;20638;-87
2022/09/14 09:14:39;;;;;;;442.67;40.53;;;17.60;99.90;;;;;;4988667;28;20041;-85
2022/09/14 09:17:54;;;;;;;103.65;29.48;;;17.50;99.90;;;;;;4986437;28;20057;-86
2022/09/14 09:20:31;;;;;;;424.85;39.35;;;17.70;99.90;;;;;;4943398;28;20552;-86
2022/09/14 09:23:20;;;;;;;231.23;32.15;;;17.80;99.90;;;;;;5009854;28;20509;-86
2022/09/14 09:26:26;;;;;;;706.30;51.83;;;17.80;99.90;;;;;;4987551;28;20043;-86
2022/09/14 09:28:55;;;;;;;431.90;39.33;;;17.90;99.90;;;;;;4994013;28;20046;-86
2022/09/14 09:31:31;;;;;;;530.80;40.97;;;18.20;99.90;;;;;;4994496;28;20070;-87
2022/09/14 09:34:24;;;;;;;323.63;32.15;;;18.20;99.90;;;;;;4995319;28;20038;-87
2022/09/14 09:36:50;;;;;;;263.13;33.47;;;18.10;99.90;;;;;;4993486;28;20077;-86
2022/09/14 09:39:16;;;;;;;226.90;31.58;;;18.20;99.90;;;;;;4993168;28;20054;-86
2022/09/14 09:41:44;;;;;;;87.10;27.75;;;18.20;99.90;;;;;;4983862;28;20035;-86
2022/09/14 09:44:09;;;;;;;76.13;28.92;;;18.20;99.90;;;;;;4989865;28;20018;-86
2022/09/14 09:46:37;;;;;;;136.38;30.92;;;18.30;99.90;;;;;;4998313;28;20040;-87
2022/09/14 09:49:14;;;;;;;62.20;30.08;;;18.10;99.90;;;;;;4977854;28;20050;-87
2022/09/14 09:51:40;;;;;;;48.92;30.45;;;18.00;99.90;;;;;;4993728;28;20677;-86
2022/09/14 09:54:12;;;;;;;47.67;29.45;;;18.10;99.90;;;;;;4998266;28;20039;-86
2022/09/14 09:56:49;;;;;;;45.67;28.90;;;18.10;99.90;;;;;;4994907;28;20034;-87
2022/09/14 09:59:26;;;;;;;40.40;26.42;;;18.20;99.90;;;;;;4995968;28;20029;-87
2022/09/14 10:01:55;;;;;;;44.97;28.35;;;18.40;99.90;;;;;;4978683;28;20037;-87
2022/09/14 10:04:26;;;;;;;35.72;23.92;;;18.50;99.90;;;;;;4993361;28;20884;-87
2022/09/14 10:06:53;;;;;;;35.67;24.33;;;18.90;99.90;;;;;;4973616;28;20058;-87
2022/09/14 10:09:22;;;;;;;35.47;25.65;;;19.10;99.90;;;;;;4976509;28;20034;-88
2022/09/14 10:12:01;;;;;;;36.95;25.17;;;19.10;99.90;;;;;;4988175;28;20410;-87
2022/09/14 10:14:34;;;;;;;36.47;24.08;;;19.20;99.90;;;;;;4979300;28;20450;-87
2022/09/14 10:17:22;;;;;;;38.03;25.42;;;19.10;99.90;;;;;;4998635;28;20037;-87
2022/09/14 10:19:51;;;;;;;25.27;19.15;;;18.90;99.90;;;;;;4992969;28;20039;-87
2022/09/14 10:22:16;;;;;;;35.03;24.08;;;18.70;99.90;;;;;;4998098;28;20359;-87
2022/09/14 10:25:01;;;;;;;40.42;25.33;;;18.60;99.90;;;;;;4974499;28;20070;-88
2022/09/14 10:27:56;;;;;;;34.75;24.05;;;18.80;99.90;;;;;;4987530;28;20034;-87
2022/09/14 10:30:38;;;;;;;38.10;23.08;;;19.30;99.90;;;;;;4984851;28;20037;-87
2022/09/14 10:33:07;;;;;;;34.15;23.30;;;19.70;99.90;;;;;;4996270;28;20116;-88
2022/09/14 10:35:36;;;;;;;34.72;21.83;;;20.00;99.90;;;;;;4992057;28;20038;-87
2022/09/14 10:38:23;;;;;;;37.83;23.80;;;20.20;99.90;;;;;;4993585;28;20027;-88
2022/09/14 10:40:59;;;;;;;28.33;20.52;;;20.30;99.90;;;;;;4976185;28;20436;-88
2022/09/14 10:43:46;;;;;;;30.67;21.67;;;20.40;99.90;;;;;;4992152;28;20401;-87
2022/09/14 10:46:19;;;;;;;38.35;25.48;;;20.10;99.90;;;;;;4990697;28;20030;-87
2022/09/14 10:49:11;;;;;;;37.20;26.17;;;19.80;99.90;;;;;;4992697;28;20529;-88
2022/09/14 10:51:50;;;;;;;35.63;24.00;;;19.50;99.90;;;;;;4991578;28;20050;-87
2022/09/14 10:54:36;;;;;;;35.15;25.60;;;19.50;99.90;;;;;;4986318;28;20031;-89
2022/09/14 10:57:38;;;;;;;35.83;26.10;;;19.40;99.90;;;;;;4993096;28;20030;-87
2022/09/14 11:00:18;;;;;;;43.10;28.10;;;19.50;99.90;;;;;;4968671;28;20038;-87
2022/09/14 11:02:49;;;;;;;37.50;27.45;;;19.50;99.90;;;;;;4971624;28;20034;-87
2022/09/14 11:05:24;;;;;;;39.95;28.52;;;19.50;99.90;;;;;;4986131;28;20470;-87
2022/09/14 11:07:54;;;;;;;37.53;26.65;;;19.50;99.90;;;;;;4988725;28;20034;-87
2022/09/14 11:10:43;;;;;;;42.05;26.63;;;19.50;99.90;;;;;;4976374;28;20026;-88
2022/09/14 11:13:23;;;;;;;33.25;24.98;;;19.70;99.90;;;;;;4992380;28;20125;-88
2022/09/14 11:16:01;;;;;;;29.85;22.77;;;19.80;99.90;;;;;;4975983;28;20501;-88
2022/09/14 11:18:41;;;;;;;30.25;20.45;;;20.10;99.90;;;;;;4975866;28;20034;-87
2022/09/14 11:21:43;;;;;;;28.55;21.58;;;20.50;99.90;;;;;;5001340;28;20030;-87
2022/09/14 11:24:27;;;;;;;32.35;19.80;;;20.40;99.90;;;;;;4958983;28;20038;-88
2022/09/14 11:27:17;;;;;;;25.60;17.65;;;20.70;99.90;;;;;;4991481;28;20939;-88
2022/09/14 11:30:01;;;;;;;26.10;16.00;;;21.30;99.90;;;;;;4976492;28;20034;-88
2022/09/14 11:32:45;;;;;;;21.50;14.73;;;21.90;99.90;;;;;;4992581;28;20030;-88
2022/09/14 11:35:29;;;;;;;22.50;14.05;;;22.30;99.90;;;;;;4990572;28;20695;-88
2022/09/14 11:37:59;;;;;;;15.80;14.07;;;22.60;99.90;;;;;;4994149;28;20026;-88
2022/09/14 11:40:35;;;;;;;20.98;12.85;;;22.40;99.90;;;;;;4974638;28;20034;-88
2022/09/14 11:43:21;;;;;;;19.52;11.15;;;22.70;99.90;;;;;;4965834;28;20026;-88
2022/09/14 11:45:52;;;;;;;18.50;11.50;;;23.60;99.90;;;;;;4975108;28;20034;-89
2022/09/14 11:48:33;;;;;;;17.95;12.05;;;23.50;99.90;;;;;;4997524;28;20038;-89
2022/09/14 11:51:14;;;;;;;12.38;8.43;;;23.80;99.90;;;;;;4991874;28;20049;-89
2022/09/14 11:53:43;;;;;;;19.17;9.32;;;24.20;99.90;;;;;;4992127;28;20062;-88
2022/09/14 11:56:25;;;;;;;12.85;7.45;;;24.80;99.90;;;;;;4992416;28;20129;-89
2022/09/14 11:58:56;;;;;;;12.40;8.00;;;24.30;99.90;;;;;;4991855;28;20128;-89
2022/09/14 12:01:31;;;;;;;13.38;8.77;;;23.50;99.90;;;;;;4993507;28;20061;-86
2022/09/14 12:04:00;;;;;;;13.35;8.98;;;22.60;99.90;;;;;;4999976;28;20456;-86
2022/09/14 12:06:28;;;;;;;12.02;8.70;;;21.90;99.90;;;;;;4995378;28;20109;-85
2022/09/14 12:09:19;;;;;;;15.55;8.63;;;21.40;99.90;;;;;;4979378;28;20133;-85
2022/09/14 12:11:54;;;;;;;10.65;8.25;;;21.30;99.90;;;;;;4994800;28;20037;-85
2022/09/14 12:14:23;;;;;;;14.68;8.32;;;21.50;99.90;;;;;;4994753;28;20026;-85
2022/09/14 12:20:45;;;;;;;16.20;8.73;;;21.20;99.90;;;;;;4993575;28;20161;-88
2022/09/14 12:23:17;;;;;;;16.17;9.95;;;21.20;99.90;;;;;;4973251;28;20058;-88
2022/09/14 12:26:24;;;;;;;17.25;9.48;;;21.10;99.90;;;;;;4992182;28;20481;-88
2022/09/14 12:28:54;;;;;;;20.75;10.00;;;20.70;99.90;;;;;;4973196;28;20045;-88
2022/09/14 12:31:31;;;;;;;14.75;11.10;;;20.50;99.90;;;;;;4973630;28;20034;-87
2022/09/14 12:34:14;;;;;;;15.95;10.65;;;20.20;99.90;;;;;;4994662;28;20485;-88
2022/09/14 12:36:40;;;;;;;15.68;10.88;;;20.10;99.90;;;;;;4978827;28;20625;-88
2022/09/14 12:39:24;;;;;;;20.00;12.15;;;20.10;99.90;;;;;;4982681;28;20034;-88
2022/09/14 12:41:49;;;;;;;19.55;11.88;;;20.00;99.90;;;;;;4978930;28;20029;-88
2022/09/14 12:48:03;;;;;;;15.93;11.75;;;20.10;99.90;;;;;;4996289;28;20540;-89
2022/09/14 12:50:34;;;;;;;15.73;11.73;;;20.00;99.90;;;;;;4974839;28;20124;-88
2022/09/14 12:53:09;;;;;;;20.63;14.85;;;19.90;99.90;;;;;;4995259;28;20035;-88
2022/09/14 12:55:43;;;;;;;20.10;14.40;;;19.90;99.90;;;;;;4995287;28;20034;-87
2022/09/14 12:58:42;;;;;;;28.17;16.92;;;19.80;99.90;;;;;;5011111;28;20042;-85
2022/09/14 13:01:35;;;;;;;30.33;17.17;;;19.60;99.90;;;;;;4989091;28;20037;-86
2022/09/14 13:04:02;;;;;;;33.03;18.95;;;19.30;99.90;;;;;;4986717;28;20022;-86
2022/09/14 13:06:48;;;;;;;35.75;23.27;;;19.10;99.90;;;;;;4976162;28;20065;-85